Sunday, May 29, 2016
05:44 UTC
  |  Log In   |  Register Free
Airport Search:

Washington Dulles International Airport
(KIAD)

FAA data valid effective Mar 31 2016 - May 26 2016 (unless otherwise noted).

 
 
 
 
 
 
 
 
 
 
 
 
 
 
Summary: Washington Dulles International (IAD)

Weather Summary


METAR for KIAD is not available. Closest METAR is for KJYO
KIAD  (most recent observation was updatred at 29:04 UTC)
290452Z 17007KT 10SM FEW250 22/16 A3016 RMK AO2 SLP208 T02170161 403170206

KJYO  (9.3 nm SE)   (most recent observation was updated at 29:05 UTC)
290535Z AUTO 17006KT 10SM CLR 22/19 A3014 RMK AO2

KHEF  (13.7 nm NE)   (most recent observation was updated at 29:05 UTC)
290535Z 00000KT 10SM CLR 18/17 A3015 RMK AO1

TAF for KIAD is not available.
KIAD
290527Z 2906/3012 17007KT P6SM FEW250 FM291000 VRB03KT 5SM BR BKN200 FM291200 18004KT P6SM BKN150 FM291900 17006KT 6SM SHRA OVC090 FM292200 16005KT 5SM SHRA OVC045 FM300300 VRB03KT 5SM SHRA OVC020 FM300400 VRB03KT 3SM SHRA BR OVC020 FM301000 VRB03KT 6SM BR OVC010

KDAA  (18.8 nm NW)   (most recent observation was updatred at 28:01 UTC)
280100Z 2801/2907 17006KT 9999 FEW035 QNH3003INS BECMG 2805/2806 VRB06KT 9999 SCT020 WS020/23032KT QNH3010INS BECMG 2815/2816 16012KT 9999 FEW040 QNH3012INS BECMG 2900/2901 17006KT 9999 FEW020 SCT220 QNH3012INS TX31/2818Z TN20/2808Z LAST NO AMDS AFT 2801 NEXT 3109


KDCA  (20.3 nm NW)   (most recent observation was updatred at 29:05 UTC)
290527Z 2906/3006 19007KT P6SM SCT250 FM291100 00000KT P6SM BKN200 FM291600 16005KT P6SM OVC150 FM291800 16006KT P6SM OVC120 FM291900 16006KT 6SM SHRA OVC050 FM292200 15007KT 5SM SHRA OVC045 FM300300 16004KT 5SM SHRA OVC020 FM300400 17004KT 3SM SHRA BR OVC020
GlobalAir.com is loading additional information.
 Current Weather at IAD
72.0 F° (22.2 C°)
A Few Clouds
South winds at 4.6 mph
Pressure:
30.15 in
Humidity:
73%
Wind:
South at 4.6 MPH (4 KT)
Dew Point:
63.0 F° (17.2 C°)
Visibility:
10.00 mi
IAD NOAA Radar

Communications Summary


CTAFN/A
UNICOM122.95
ATIS134.85 (703-471-7127)
WX ASOS
DULLES GROUND121.9 (EAST)
132.45 (WEST) [24 Hours]
DULLES TOWER120.1 (RY 01R/19L)
120.25 (RY 01C/19C)
128.425 (RY 01L/19R)
128.425 (RYS 01L/19R 12/30)
134.425 (RY 01L/19R & RY 12/30) [24 Hours]
POTOMAC APPROACH120.45 (241-330)
124.65 (091-240)
126.1 (331-090)
POTOMAC DEPARTURE125.05 (300-120)
126.65 (121-299)
CLEARANCE DELIVERY135.7
CLASS B120.45 (241-330)
124.65 (091-240)
125.05 (300-120)
126.1 (331-090)
126.65 (121-299)
CLASS B IC120.45 (241-330)
125.05 (300-120)
EMERGENCY121.5
IC120.1 (RY 01R/19L)
120.25 (RY 01C/19C)
121.9 (EAST)
128.425 (RY 01L/19R)
128.425 (RYS 01L/19R 12/30)
132.45 (WEST)
134.425 (RY 01L/19R & RY 12/30)

Closest Alternate Airports with Instrument Procedures

43VA - Reston Hospital Center - 4.4 nm NE from IAD

KJYO - Leesburg Executive - 10.7 nm NW from IAD

KHEF - Manassas Regional/Harry P. Davis Field - 13.7 nm SW from IAD

HEF - Manassas Regional/Harry P. Davis Field - 13.7 nm SW from IAD

HEF - Manassas Regional/Harry P. Davis Field - 13.7 nm SW from IAD

HEF - Manassas Regional/Harry P. Davis Field - 13.7 nm SW from IAD

KHEF - Manassas Regional/Harry P. Davis Field - 15.8 nm SW from IAD

60MD - Walter Reed National Medical Center At Bet - 17.1 nm NE from IAD

VG93 - Fort Belvoir Community Hospital - 20.4 nm SE from IAD

KGAI - Montgomery County Airpark - 22 nm NE from IAD

Find All Airport Services Find A Hotel Find A Rental Car Find A Golf Course Find A Restaurant $100 Hamburger



FBO's on the Field
FBO Company Facility Photos Services Transportation Aviation Fuel Prices: Prices include tax
Catering Weather Repair Courtesy Rental Type 100LL JetA JetA+ MOGAS 8087
 
Landmark Aviation - IAD

Currently rated 5 by 1 person
FS:Shell
Last Updated: May-28
Login to update fuel prices
SS:
Contact Landmark Aviation - IADMore FBO Information
 
Signature Flight Support

Currently rated 5 by 1 person
FS:Independent
Last Updated: May-28
Login to update fuel prices
SS:
Contact Signature Flight SupportMore FBO Information
 
Add another FBO Facility Photos Catering Weather Repair Courtesy Rental Type 100LL JetA JetA+ MOGAS 8087
Services Transportation Aviation Fuel Prices: Prices include tax


model-print
model-print
model-print
model-print